sensor_id;sensor_type;location;lat;lon;timestamp;pressure;altitude;pressure_sealevel;temperature;humidity
49723;BME280;43484;43.608;1.458;2023-08-24T00:01:52;99455.66;;;31.57;74.10
49723;BME280;43484;43.608;1.458;2023-08-24T00:04:19;99455.00;;;31.53;74.49
49723;BME280;43484;43.608;1.458;2023-08-24T00:06:45;99457.84;;;31.50;74.90
49723;BME280;43484;43.608;1.458;2023-08-24T00:09:12;99453.88;;;31.43;75.76
49723;BME280;43484;43.608;1.458;2023-08-24T00:11:39;99461.81;;;31.43;76.22
49723;BME280;43484;43.608;1.458;2023-08-24T00:14:06;99449.72;;;31.39;76.60
49723;BME280;43484;43.608;1.458;2023-08-24T00:16:33;99450.66;;;31.38;77.02
49723;BME280;43484;43.608;1.458;2023-08-24T00:18:59;99455.38;;;31.33;77.49
49723;BME280;43484;43.608;1.458;2023-08-24T00:21:26;99449.81;;;31.38;77.97
49723;BME280;43484;43.608;1.458;2023-08-24T00:23:52;99438.72;;;31.31;78.38
49723;BME280;43484;43.608;1.458;2023-08-24T00:26:20;99440.03;;;31.24;79.46
49723;BME280;43484;43.608;1.458;2023-08-24T00:28:46;99445.34;;;31.24;79.95
49723;BME280;43484;43.608;1.458;2023-08-24T00:31:15;99441.16;;;31.20;80.59
49723;BME280;43484;43.608;1.458;2023-08-24T00:33:42;99449.28;;;31.17;80.71
49723;BME280;43484;43.608;1.458;2023-08-24T00:36:09;99446.84;;;31.14;81.39
49723;BME280;43484;43.608;1.458;2023-08-24T00:38:36;99442.47;;;31.13;81.39
49723;BME280;43484;43.608;1.458;2023-08-24T00:41:03;99443.53;;;31.11;81.86
49723;BME280;43484;43.608;1.458;2023-08-24T00:43:30;99446.16;;;31.11;81.59
49723;BME280;43484;43.608;1.458;2023-08-24T00:46:01;99438.69;;;31.03;82.23
49723;BME280;43484;43.608;1.458;2023-08-24T00:48:30;99438.97;;;30.99;82.98
49723;BME280;43484;43.608;1.458;2023-08-24T00:50:59;99436.69;;;30.93;83.65
49723;BME280;43484;43.608;1.458;2023-08-24T00:53:28;99432.53;;;30.89;84.02
49723;BME280;43484;43.608;1.458;2023-08-24T00:55:56;99440.56;;;30.87;84.79
49723;BME280;43484;43.608;1.458;2023-08-24T00:58:23;99441.59;;;30.85;84.98
49723;BME280;43484;43.608;1.458;2023-08-24T01:00:52;99437.31;;;30.82;85.36
49723;BME280;43484;43.608;1.458;2023-08-24T01:03:23;99439.28;;;30.79;85.82
49723;BME280;43484;43.608;1.458;2023-08-24T01:05:51;99436.66;;;30.79;85.91
49723;BME280;43484;43.608;1.458;2023-08-24T01:08:19;99441.31;;;30.73;86.53
49723;BME280;43484;43.608;1.458;2023-08-24T01:16:27;99427.91;;;30.62;86.24
49723;BME280;43484;43.608;1.458;2023-08-24T01:18:58;99428.91;;;30.60;86.53
49723;BME280;43484;43.608;1.458;2023-08-24T01:21:29;99432.50;;;30.59;86.23
49723;BME280;43484;43.608;1.458;2023-08-24T01:24:14;99421.34;;;30.54;86.23
49723;BME280;43484;43.608;1.458;2023-08-24T01:26:45;99426.72;;;30.52;85.71
49723;BME280;43484;43.608;1.458;2023-08-24T01:29:13;99426.25;;;30.46;85.75
49723;BME280;43484;43.608;1.458;2023-08-24T01:31:41;99417.53;;;30.44;86.04
49723;BME280;43484;43.608;1.458;2023-08-24T01:34:08;99420.09;;;30.45;86.38
49723;BME280;43484;43.608;1.458;2023-08-24T01:36:35;99416.78;;;30.42;85.82
49723;BME280;43484;43.608;1.458;2023-08-24T01:39:10;99410.72;;;30.40;86.76
49723;BME280;43484;43.608;1.458;2023-08-24T01:41:37;99410.72;;;30.40;86.43
49723;BME280;43484;43.608;1.458;2023-08-24T01:44:12;99417.97;;;30.36;86.73
49723;BME280;43484;43.608;1.458;2023-08-24T01:46:42;99417.97;;;30.36;87.25
49723;BME280;43484;43.608;1.458;2023-08-24T01:49:12;99416.28;;;30.35;87.11
49723;BME280;43484;43.608;1.458;2023-08-24T01:51:40;99413.38;;;30.24;87.82
49723;BME280;43484;43.608;1.458;2023-08-24T01:54:08;99417.47;;;30.30;88.34
49723;BME280;43484;43.608;1.458;2023-08-24T01:56:35;99415.41;;;30.19;89.15
49723;BME280;43484;43.608;1.458;2023-08-24T01:59:02;99412.69;;;30.21;89.16
49723;BME280;43484;43.608;1.458;2023-08-24T02:01:29;99408.41;;;30.18;89.95
49723;BME280;43484;43.608;1.458;2023-08-24T02:03:56;99405.97;;;30.15;90.16
49723;BME280;43484;43.608;1.458;2023-08-24T02:06:23;99407.06;;;30.11;90.79
49723;BME280;43484;43.608;1.458;2023-08-24T02:08:49;99408.78;;;30.12;91.09
49723;BME280;43484;43.608;1.458;2023-08-24T02:11:16;99406.66;;;30.03;91.75
49723;BME280;43484;43.608;1.458;2023-08-24T02:13:42;99405.19;;;29.98;92.40
49723;BME280;43484;43.608;1.458;2023-08-24T02:16:09;99404.97;;;30.02;92.72
49723;BME280;43484;43.608;1.458;2023-08-24T02:18:36;99411.16;;;30.01;92.94
49723;BME280;43484;43.608;1.458;2023-08-24T02:21:09;99401.53;;;30.00;93.24
49723;BME280;43484;43.608;1.458;2023-08-24T02:23:38;99394.63;;;29.98;93.63
49723;BME280;43484;43.608;1.458;2023-08-24T02:26:06;99398.13;;;29.98;94.23
49723;BME280;43484;43.608;1.458;2023-08-24T02:28:33;99399.06;;;29.97;94.22
49723;BME280;43484;43.608;1.458;2023-08-24T02:31:01;99395.94;;;29.91;94.83
49723;BME280;43484;43.608;1.458;2023-08-24T02:33:29;99390.97;;;29.85;95.86
49723;BME280;43484;43.608;1.458;2023-08-24T02:35:56;99393.63;;;29.85;96.55
49723;BME280;43484;43.608;1.458;2023-08-24T02:38:23;99377.84;;;29.83;96.94
49723;BME280;43484;43.608;1.458;2023-08-24T02:41:03;99376.31;;;29.79;97.43
49723;BME280;43484;43.608;1.458;2023-08-24T02:43:30;99377.25;;;29.78;98.24
49723;BME280;43484;43.608;1.458;2023-08-24T02:46:05;99376.66;;;29.73;98.80
49723;BME280;43484;43.608;1.458;2023-08-24T02:48:32;99382.34;;;29.66;99.42
49723;BME280;43484;43.608;1.458;2023-08-24T02:51:00;99374.28;;;29.69;99.53
49723;BME280;43484;43.608;1.458;2023-08-24T02:53:27;99374.50;;;29.64;99.73
49723;BME280;43484;43.608;1.458;2023-08-24T02:55:54;99367.44;;;29.65;99.91
49723;BME280;43484;43.608;1.458;2023-08-24T02:58:21;99369.28;;;29.63;100.00
49723;BME280;43484;43.608;1.458;2023-08-24T03:00:48;99366.66;;;29.63;100.00
49723;BME280;43484;43.608;1.458;2023-08-24T03:03:15;99359.59;;;29.63;100.00
49723;BME280;43484;43.608;1.458;2023-08-24T03:05:55;99365.97;;;29.59;100.00
49723;BME280;43484;43.608;1.458;2023-08-24T03:08:22;99356.53;;;29.55;100.00
49723;BME280;43484;43.608;1.458;2023-08-24T03:10:49;99360.25;;;29.51;100.00
49723;BME280;43484;43.608;1.458;2023-08-24T03:13:16;99359.34;;;29.52;100.00
49723;BME280;43484;43.608;1.458;2023-08-24T03:15:43;99360.19;;;29.52;100.00
49723;BME280;43484;43.608;1.458;2023-08-24T03:18:11;99365.22;;;29.57;100.00
49723;BME280;43484;43.608;1.458;2023-08-24T03:20:39;99369.13;;;29.50;100.00
49723;BME280;43484;43.608;1.458;2023-08-24T03:23:06;99370.13;;;29.47;100.00
49723;BME280;43484;43.608;1.458;2023-08-24T03:25:38;99370.13;;;29.47;100.00
49723;BME280;43484;43.608;1.458;2023-08-24T03:28:06;99373.63;;;29.48;100.00
49723;BME280;43484;43.608;1.458;2023-08-24T03:30:35;99376.44;;;29.45;100.00
49723;BME280;43484;43.608;1.458;2023-08-24T03:33:03;99372.03;;;29.45;100.00
49723;BME280;43484;43.608;1.458;2023-08-24T03:35:31;99373.03;;;29.43;100.00
49723;BME280;43484;43.608;1.458;2023-08-24T03:37:59;99376.78;;;29.39;100.00
49723;BME280;43484;43.608;1.458;2023-08-24T03:40:25;99372.25;;;29.41;100.00
49723;BME280;43484;43.608;1.458;2023-08-24T03:42:52;99374.22;;;29.37;100.00
49723;BME280;43484;43.608;1.458;2023-08-24T03:45:20;99378.66;;;29.37;100.00
49723;BME280;43484;43.608;1.458;2023-08-24T03:47:47;99377.72;;;29.38;100.00
49723;BME280;43484;43.608;1.458;2023-08-24T03:50:14;99378.16;;;29.30;100.00
49723;BME280;43484;43.608;1.458;2023-08-24T03:52:42;99380.84;;;29.29;100.00
49723;BME280;43484;43.608;1.458;2023-08-24T03:55:09;99379.31;;;29.25;100.00
49723;BME280;43484;43.608;1.458;2023-08-24T03:57:35;99375.72;;;29.26;100.00
49723;BME280;43484;43.608;1.458;2023-08-24T04:00:08;99381.00;;;29.26;100.00
49723;BME280;43484;43.608;1.458;2023-08-24T04:02:38;99370.44;;;29.26;100.00
49723;BME280;43484;43.608;1.458;2023-08-24T04:05:05;99372.31;;;29.24;100.00
49723;BME280;43484;43.608;1.458;2023-08-24T04:07:32;99372.66;;;29.18;100.00
49723;BME280;43484;43.608;1.458;2023-08-24T04:09:59;99365.81;;;29.14;100.00
49723;BME280;43484;43.608;1.458;2023-08-24T04:12:26;99373.00;;;29.12;100.00
49723;BME280;43484;43.608;1.458;2023-08-24T04:14:52;99372.13;;;29.11;100.00
49723;BME280;43484;43.608;1.458;2023-08-24T04:17:19;99370.44;;;29.10;100.00
49723;BME280;43484;43.608;1.458;2023-08-24T04:19:46;99368.84;;;29.06;100.00
49723;BME280;43484;43.608;1.458;2023-08-24T04:22:12;99367.84;;;29.09;100.00
49723;BME280;43484;43.608;1.458;2023-08-24T04:24:39;99368.94;;;29.05;100.00
49723;BME280;43484;43.608;1.458;2023-08-24T04:27:05;99374.38;;;29.02;100.00
49723;BME280;43484;43.608;1.458;2023-08-24T04:29:32;99372.66;;;29.01;100.00
49723;BME280;43484;43.608;1.458;2023-08-24T04:31:59;99377.31;;;28.96;100.00
49723;BME280;43484;43.608;1.458;2023-08-24T04:34:25;99377.94;;;29.01;100.00
49723;BME280;43484;43.608;1.458;2023-08-24T04:36:52;99376.25;;;29.00;100.00
49723;BME280;43484;43.608;1.458;2023-08-24T04:39:21;99370.09;;;28.99;100.00
49723;BME280;43484;43.608;1.458;2023-08-24T04:41:47;99373.69;;;28.98;100.00
49723;BME280;43484;43.608;1.458;2023-08-24T04:44:14;99371.88;;;28.99;100.00
49723;BME280;43484;43.608;1.458;2023-08-24T04:46:40;99376.06;;;29.03;100.00
49723;BME280;43484;43.608;1.458;2023-08-24T04:49:07;99380.56;;;29.01;100.00
49723;BME280;43484;43.608;1.458;2023-08-24T04:51:34;99374.78;;;28.94;100.00
49723;BME280;43484;43.608;1.458;2023-08-24T04:54:01;99377.09;;;29.00;100.00
49723;BME280;43484;43.608;1.458;2023-08-24T04:56:27;99376.25;;;29.00;100.00
49723;BME280;43484;43.608;1.458;2023-08-24T04:58:55;99372.06;;;28.96;100.00
49723;BME280;43484;43.608;1.458;2023-08-24T05:01:24;99373.28;;;28.89;100.00
49723;BME280;43484;43.608;1.458;2023-08-24T05:03:53;99378.53;;;28.90;100.00
49723;BME280;43484;43.608;1.458;2023-08-24T05:06:21;99379.84;;;28.82;100.00
49723;BME280;43484;43.608;1.458;2023-08-24T05:08:47;99373.47;;;28.86;100.00
49723;BME280;43484;43.608;1.458;2023-08-24T05:11:19;99374.41;;;28.85;100.00
49723;BME280;43484;43.608;1.458;2023-08-24T05:13:46;99380.47;;;28.87;100.00
49723;BME280;43484;43.608;1.458;2023-08-24T05:16:13;99382.63;;;28.79;100.00
49723;BME280;43484;43.608;1.458;2023-08-24T05:18:40;99383.84;;;28.89;100.00
49723;BME280;43484;43.608;1.458;2023-08-24T05:21:06;99378.22;;;28.79;100.00
49723;BME280;43484;43.608;1.458;2023-08-24T05:23:34;99384.09;;;28.84;100.00
49723;BME280;43484;43.608;1.458;2023-08-24T05:26:02;99385.81;;;28.85;100.00
49723;BME280;43484;43.608;1.458;2023-08-24T05:28:30;99384.44;;;28.78;100.00
49723;BME280;43484;43.608;1.458;2023-08-24T05:30:57;99392.41;;;28.77;100.00
49723;BME280;43484;43.608;1.458;2023-08-24T05:33:25;99388.59;;;28.82;100.00
49723;BME280;43484;43.608;1.458;2023-08-24T05:35:52;99389.25;;;28.70;100.00
49723;BME280;43484;43.608;1.458;2023-08-24T05:38:19;99400.25;;;28.78;100.00
49723;BME280;43484;43.608;1.458;2023-08-24T05:40:49;99399.47;;;28.76;100.00
49723;BME280;43484;43.608;1.458;2023-08-24T05:43:16;99403.41;;;28.85;100.00
49723;BME280;43484;43.608;1.458;2023-08-24T05:45:43;99401.84;;;28.81;100.00
49723;BME280;43484;43.608;1.458;2023-08-24T05:48:14;99402.63;;;28.83;100.00
49723;BME280;43484;43.608;1.458;2023-08-24T05:50:45;99405.28;;;28.83;100.00
49723;BME280;43484;43.608;1.458;2023-08-24T05:53:12;99402.56;;;28.84;100.00
49723;BME280;43484;43.608;1.458;2023-08-24T05:55:39;99400.94;;;28.82;100.00
49723;BME280;43484;43.608;1.458;2023-08-24T05:58:06;99409.94;;;28.78;100.00
49723;BME280;43484;43.608;1.458;2023-08-24T06:00:33;99405.44;;;28.80;100.00
49723;BME280;43484;43.608;1.458;2023-08-24T06:03:00;99405.09;;;28.86;100.00
49723;BME280;43484;43.608;1.458;2023-08-24T06:05:26;99403.25;;;28.88;100.00
49723;BME280;43484;43.608;1.458;2023-08-24T06:07:53;99404.72;;;28.93;100.00
49723;BME280;43484;43.608;1.458;2023-08-24T06:10:21;99404.91;;;28.90;100.00
49723;BME280;43484;43.608;1.458;2023-08-24T06:12:48;99411.94;;;28.90;100.00
49723;BME280;43484;43.608;1.458;2023-08-24T06:15:14;99409.69;;;28.82;100.00
49723;BME280;43484;43.608;1.458;2023-08-24T06:17:42;99404.81;;;28.75;100.00
49723;BME280;43484;43.608;1.458;2023-08-24T06:20:09;99410.88;;;28.77;100.00
49723;BME280;43484;43.608;1.458;2023-08-24T06:22:37;99409.59;;;28.84;100.00
49723;BME280;43484;43.608;1.458;2023-08-24T06:25:04;99399.53;;;28.75;100.00
49723;BME280;43484;43.608;1.458;2023-08-24T06:27:31;99409.59;;;28.84;100.00
49723;BME280;43484;43.608;1.458;2023-08-24T06:29:58;99401.69;;;28.84;100.00
49723;BME280;43484;43.608;1.458;2023-08-24T06:32:24;99399.06;;;28.84;100.00
49723;BME280;43484;43.608;1.458;2023-08-24T06:34:51;99406.19;;;28.99;100.00
49723;BME280;43484;43.608;1.458;2023-08-24T06:37:18;99401.16;;;28.94;100.00
49723;BME280;43484;43.608;1.458;2023-08-24T06:39:44;99402.47;;;29.03;100.00
49723;BME280;43484;43.608;1.458;2023-08-24T06:42:11;99405.50;;;28.95;100.00
49723;BME280;43484;43.608;1.458;2023-08-24T06:44:37;99406.13;;;29.00;100.00
49723;BME280;43484;43.608;1.458;2023-08-24T06:47:04;99408.28;;;29.09;100.00
49723;BME280;43484;43.608;1.458;2023-08-24T06:49:31;99409.06;;;29.11;100.00
49723;BME280;43484;43.608;1.458;2023-08-24T06:51:58;99410.38;;;29.03;100.00
49723;BME280;43484;43.608;1.458;2023-08-24T06:54:24;99405.66;;;29.09;100.00
49723;BME280;43484;43.608;1.458;2023-08-24T06:56:53;99409.16;;;29.10;100.00
49723;BME280;43484;43.608;1.458;2023-08-24T06:59:20;99412.31;;;29.16;100.00
49723;BME280;43484;43.608;1.458;2023-08-24T07:01:46;99412.84;;;29.23;100.00
49723;BME280;43484;43.608;1.458;2023-08-24T07:04:14;99417.94;;;29.26;100.00
49723;BME280;43484;43.608;1.458;2023-08-24T07:06:42;99419.44;;;29.31;100.00
49723;BME280;43484;43.608;1.458;2023-08-24T07:09:09;99412.81;;;29.40;100.00
49723;BME280;43484;43.608;1.458;2023-08-24T07:11:36;99407.34;;;29.43;100.00
49723;BME280;43484;43.608;1.458;2023-08-24T07:14:03;99416.66;;;29.50;100.00
49723;BME280;43484;43.608;1.458;2023-08-24T07:16:29;99405.16;;;29.51;100.00
49723;BME280;43484;43.608;1.458;2023-08-24T07:18:56;99401.41;;;29.55;100.00
49723;BME280;43484;43.608;1.458;2023-08-24T07:21:22;99397.50;;;29.62;100.00
49723;BME280;43484;43.608;1.458;2023-08-24T07:23:49;99397.34;;;29.65;100.00
49723;BME280;43484;43.608;1.458;2023-08-24T07:26:16;99397.97;;;29.70;100.00
49723;BME280;43484;43.608;1.458;2023-08-24T07:28:42;99398.56;;;29.75;100.00
49723;BME280;43484;43.608;1.458;2023-08-24T07:31:10;99393.03;;;29.80;100.00
49723;BME280;43484;43.608;1.458;2023-08-24T07:33:40;99386.56;;;29.85;100.00
49723;BME280;43484;43.608;1.458;2023-08-24T07:36:07;99391.25;;;29.96;100.00
49723;BME280;43484;43.608;1.458;2023-08-24T07:38:34;99389.94;;;30.03;100.00
49723;BME280;43484;43.608;1.458;2023-08-24T07:41:00;99385.16;;;30.09;100.00
49723;BME280;43484;43.608;1.458;2023-08-24T07:43:27;99385.59;;;30.17;100.00
49723;BME280;43484;43.608;1.458;2023-08-24T07:45:53;99383.47;;;30.24;100.00
49723;BME280;43484;43.608;1.458;2023-08-24T07:48:21;99373.97;;;30.35;100.00
49723;BME280;43484;43.608;1.458;2023-08-24T07:50:48;99365.88;;;30.38;100.00
49723;BME280;43484;43.608;1.458;2023-08-24T07:53:14;99364.56;;;30.45;100.00
49723;BME280;43484;43.608;1.458;2023-08-24T07:55:42;99371.88;;;30.56;100.00
49723;BME280;43484;43.608;1.458;2023-08-24T07:58:09;99367.91;;;30.63;100.00
49723;BME280;43484;43.608;1.458;2023-08-24T08:00:35;99367.66;;;30.67;99.88
49723;BME280;43484;43.608;1.458;2023-08-24T08:03:02;99369.81;;;30.75;98.32
49723;BME280;43484;43.608;1.458;2023-08-24T08:05:29;99373.53;;;30.87;96.14
49723;BME280;43484;43.608;1.458;2023-08-24T08:07:56;99376.59;;;30.95;94.08
49723;BME280;43484;43.608;1.458;2023-08-24T08:10:22;99376.22;;;31.01;92.64
49723;BME280;43484;43.608;1.458;2023-08-24T08:12:49;99371.22;;;31.10;91.14
49723;BME280;43484;43.608;1.458;2023-08-24T08:15:16;99367.44;;;31.14;90.06
49723;BME280;43484;43.608;1.458;2023-08-24T08:17:42;99367.81;;;31.22;89.64
49723;BME280;43484;43.608;1.458;2023-08-24T08:20:09;99367.41;;;31.28;88.82
49723;BME280;43484;43.608;1.458;2023-08-24T08:22:40;99372.94;;;31.39;86.69
49723;BME280;43484;43.608;1.458;2023-08-24T08:25:07;99369.06;;;31.45;85.84
49723;BME280;43484;43.608;1.458;2023-08-24T08:27:34;99377.66;;;31.48;84.63
49723;BME280;43484;43.608;1.458;2023-08-24T08:30:00;99382.16;;;31.60;84.74
49723;BME280;43484;43.608;1.458;2023-08-24T08:32:27;99372.91;;;31.67;83.89
49723;BME280;43484;43.608;1.458;2023-08-24T08:34:54;99374.97;;;31.76;82.63
49723;BME280;43484;43.608;1.458;2023-08-24T08:37:24;99376.34;;;31.82;82.34
49723;BME280;43484;43.608;1.458;2023-08-24T08:39:51;99377.50;;;31.92;80.70
49723;BME280;43484;43.608;1.458;2023-08-24T08:42:17;99376.91;;;32.01;78.02
49723;BME280;43484;43.608;1.458;2023-08-24T08:44:46;99376.38;;;32.09;76.99
49723;BME280;43484;43.608;1.458;2023-08-24T08:47:13;99370.69;;;32.15;75.15
49723;BME280;43484;43.608;1.458;2023-08-24T08:49:42;99370.00;;;32.25;74.37
49723;BME280;43484;43.608;1.458;2023-08-24T08:52:09;99369.91;;;32.27;72.77
49723;BME280;43484;43.608;1.458;2023-08-24T08:54:36;99363.41;;;32.31;72.74
49723;BME280;43484;43.608;1.458;2023-08-24T08:57:03;99361.88;;;32.41;72.24
49723;BME280;43484;43.608;1.458;2023-08-24T08:59:30;99364.97;;;32.47;72.13
49723;BME280;43484;43.608;1.458;2023-08-24T09:01:57;99362.22;;;32.49;71.88
49723;BME280;43484;43.608;1.458;2023-08-24T09:04:25;99361.72;;;32.56;70.67
49723;BME280;43484;43.608;1.458;2023-08-24T09:06:52;99365.13;;;32.58;70.78
49723;BME280;43484;43.608;1.458;2023-08-24T09:09:19;99366.59;;;32.62;71.00
49723;BME280;43484;43.608;1.458;2023-08-24T09:11:46;99361.81;;;32.67;71.58
49723;BME280;43484;43.608;1.458;2023-08-24T09:14:14;99362.25;;;32.74;71.58
49723;BME280;43484;43.608;1.458;2023-08-24T09:16:41;99365.34;;;32.80;70.32
49723;BME280;43484;43.608;1.458;2023-08-24T09:19:11;99364.06;;;32.86;70.10
49723;BME280;43484;43.608;1.458;2023-08-24T09:21:38;99363.81;;;32.90;69.88
49723;BME280;43484;43.608;1.458;2023-08-24T09:24:06;99364.00;;;33.00;69.22
49723;BME280;43484;43.608;1.458;2023-08-24T09:26:37;99370.59;;;33.07;69.38
49723;BME280;43484;43.608;1.458;2023-08-24T09:29:13;99365.91;;;33.11;69.01
49723;BME280;43484;43.608;1.458;2023-08-24T09:31:40;99374.19;;;33.06;69.29
49723;BME280;43484;43.608;1.458;2023-08-24T09:34:10;99370.91;;;33.15;69.61
49723;BME280;43484;43.608;1.458;2023-08-24T09:36:37;99366.22;;;33.19;69.02
49723;BME280;43484;43.608;1.458;2023-08-24T09:39:04;99373.00;;;33.23;69.00
49723;BME280;43484;43.608;1.458;2023-08-24T09:41:40;99369.06;;;33.28;69.60
49723;BME280;43484;43.608;1.458;2023-08-24T09:44:07;99371.91;;;33.38;69.12
49723;BME280;43484;43.608;1.458;2023-08-24T09:46:38;99365.88;;;33.36;68.91
49723;BME280;43484;43.608;1.458;2023-08-24T09:49:06;99371.19;;;33.36;69.42
49723;BME280;43484;43.608;1.458;2023-08-24T09:51:34;99365.66;;;33.51;68.18
49723;BME280;43484;43.608;1.458;2023-08-24T09:54:05;99369.69;;;33.57;66.67
49723;BME280;43484;43.608;1.458;2023-08-24T09:56:35;99363.09;;;33.62;65.95
49723;BME280;43484;43.608;1.458;2023-08-24T10:01:46;99368.94;;;33.67;67.06
49723;BME280;43484;43.608;1.458;2023-08-24T10:04:15;99352.53;;;33.73;66.47
49723;BME280;43484;43.608;1.458;2023-08-24T10:06:48;99360.91;;;33.80;65.04
49723;BME280;43484;43.608;1.458;2023-08-24T10:09:22;99362.81;;;33.78;64.83
49723;BME280;43484;43.608;1.458;2023-08-24T10:11:50;99353.56;;;33.83;63.90
49723;BME280;43484;43.608;1.458;2023-08-24T10:16:53;99354.50;;;33.95;64.06
49723;BME280;43484;43.608;1.458;2023-08-24T10:19:21;99350.88;;;33.96;63.14
49723;BME280;43484;43.608;1.458;2023-08-24T10:21:49;99358.56;;;34.11;63.20
49723;BME280;43484;43.608;1.458;2023-08-24T10:24:18;99349.28;;;34.17;62.24
49723;BME280;43484;43.608;1.458;2023-08-24T10:26:47;99361.59;;;34.18;62.39
49723;BME280;43484;43.608;1.458;2023-08-24T10:29:15;99360.31;;;34.23;61.19
49723;BME280;43484;43.608;1.458;2023-08-24T10:31:43;99347.75;;;34.26;58.72
49723;BME280;43484;43.608;1.458;2023-08-24T10:34:10;99354.88;;;34.25;60.49
49723;BME280;43484;43.608;1.458;2023-08-24T10:36:40;99361.56;;;34.31;60.65
49723;BME280;43484;43.608;1.458;2023-08-24T10:39:07;99355.75;;;34.37;60.69
49723;BME280;43484;43.608;1.458;2023-08-24T10:41:47;99357.41;;;34.50;60.06
49723;BME280;43484;43.608;1.458;2023-08-24T10:44:37;99363.09;;;34.57;59.33
49723;BME280;43484;43.608;1.458;2023-08-24T10:55:01;99352.84;;;34.63;58.75
49723;BME280;43484;43.608;1.458;2023-08-24T11:00:06;99356.66;;;34.83;58.48
49723;BME280;43484;43.608;1.458;2023-08-24T11:08:05;99355.22;;;34.90;57.70
49723;BME280;43484;43.608;1.458;2023-08-24T11:13:11;99346.16;;;34.92;56.21
49723;BME280;43484;43.608;1.458;2023-08-24T11:18:25;99342.63;;;34.92;57.10
49723;BME280;43484;43.608;1.458;2023-08-24T11:21:01;99335.00;;;34.87;57.97
49723;BME280;43484;43.608;1.458;2023-08-24T11:23:29;99329.69;;;34.98;58.01
49723;BME280;43484;43.608;1.458;2023-08-24T11:25:57;99331.16;;;35.13;56.02
49723;BME280;43484;43.608;1.458;2023-08-24T11:28:27;99334.28;;;35.18;54.34
49723;BME280;43484;43.608;1.458;2023-08-24T11:30:55;99331.53;;;35.20;53.67
49723;BME280;43484;43.608;1.458;2023-08-24T11:33:34;99323.19;;;35.24;52.48
49723;BME280;43484;43.608;1.458;2023-08-24T11:36:05;99318.91;;;35.22;52.60
49723;BME280;43484;43.608;1.458;2023-08-24T11:38:40;99323.19;;;35.24;54.40
49723;BME280;43484;43.608;1.458;2023-08-24T11:41:14;99318.94;;;35.44;53.67
49723;BME280;43484;43.608;1.458;2023-08-24T11:43:42;99320.66;;;35.45;53.70
49723;BME280;43484;43.608;1.458;2023-08-24T11:46:09;99316.63;;;35.51;55.04
49723;BME280;43484;43.608;1.458;2023-08-24T11:48:37;99318.22;;;35.53;55.54
49723;BME280;43484;43.608;1.458;2023-08-24T11:51:12;99315.06;;;35.48;55.99
49723;BME280;43484;43.608;1.458;2023-08-24T11:53:46;99306.69;;;35.53;54.60
49723;BME280;43484;43.608;1.458;2023-08-24T11:56:14;99309.44;;;35.62;53.28
49723;BME280;43484;43.608;1.458;2023-08-24T11:58:41;99308.56;;;35.73;51.79
49723;BME280;43484;43.608;1.458;2023-08-24T12:01:10;99303.25;;;35.73;50.52
49723;BME280;43484;43.608;1.458;2023-08-24T12:03:37;99303.50;;;35.70;50.55
49723;BME280;43484;43.608;1.458;2023-08-24T12:06:13;99310.16;;;35.75;49.42
49723;BME280;43484;43.608;1.458;2023-08-24T12:08:41;99298.25;;;35.79;48.70
49723;BME280;43484;43.608;1.458;2023-08-24T12:11:17;99302.25;;;35.74;48.69
49723;BME280;43484;43.608;1.458;2023-08-24T12:13:48;99301.78;;;35.80;50.59
49723;BME280;43484;43.608;1.458;2023-08-24T12:16:19;99298.38;;;35.89;51.25
49723;BME280;43484;43.608;1.458;2023-08-24T12:19:07;99299.94;;;35.91;51.31
49723;BME280;43484;43.608;1.458;2023-08-24T12:21:34;99296.16;;;35.94;51.64
49723;BME280;43484;43.608;1.458;2023-08-24T12:24:02;99296.66;;;35.99;51.76
49723;BME280;43484;43.608;1.458;2023-08-24T12:26:35;99290.88;;;36.14;49.25
49723;BME280;43484;43.608;1.458;2023-08-24T12:29:05;99291.59;;;36.16;49.32
49723;BME280;43484;43.608;1.458;2023-08-24T12:31:35;99292.19;;;36.20;48.82
49723;BME280;43484;43.608;1.458;2023-08-24T12:34:07;99294.13;;;36.18;47.65
49723;BME280;43484;43.608;1.458;2023-08-24T12:36:38;99286.00;;;36.19;48.41
49723;BME280;43484;43.608;1.458;2023-08-24T12:39:06;99289.31;;;36.32;48.83
49723;BME280;43484;43.608;1.458;2023-08-24T12:41:34;99277.31;;;36.38;48.03
49723;BME280;43484;43.608;1.458;2023-08-24T12:44:01;99280.63;;;36.51;48.50
49723;BME280;43484;43.608;1.458;2023-08-24T12:46:32;99278.94;;;36.50;47.14
49723;BME280;43484;43.608;1.458;2023-08-24T12:48:59;99274.97;;;36.44;45.76
49723;BME280;43484;43.608;1.458;2023-08-24T12:51:26;99270.06;;;36.49;45.83
49723;BME280;43484;43.608;1.458;2023-08-24T12:53:52;99268.13;;;36.51;46.68
49723;BME280;43484;43.608;1.458;2023-08-24T12:56:19;99267.34;;;36.61;46.61
49723;BME280;43484;43.608;1.458;2023-08-24T12:58:45;99262.59;;;36.64;46.50
49723;BME280;43484;43.608;1.458;2023-08-24T13:01:12;99260.75;;;36.65;46.85
49723;BME280;43484;43.608;1.458;2023-08-24T13:03:39;99259.66;;;36.67;46.64
49723;BME280;43484;43.608;1.458;2023-08-24T13:06:06;99263.50;;;36.74;45.59
49723;BME280;43484;43.608;1.458;2023-08-24T13:08:49;99263.50;;;36.74;44.60
49723;BME280;43484;43.608;1.458;2023-08-24T13:11:15;99256.66;;;36.81;43.85
49723;BME280;43484;43.608;1.458;2023-08-24T13:13:42;99248.84;;;36.89;43.92
49723;BME280;43484;43.608;1.458;2023-08-24T13:16:08;99259.09;;;36.94;44.30
49723;BME280;43484;43.608;1.458;2023-08-24T13:18:35;99254.19;;;36.89;43.24
49723;BME280;43484;43.608;1.458;2023-08-24T13:21:02;99248.25;;;36.86;43.37
49723;BME280;43484;43.608;1.458;2023-08-24T13:23:29;99240.53;;;36.92;42.00
49723;BME280;43484;43.608;1.458;2023-08-24T13:25:57;99247.47;;;37.04;42.34
49723;BME280;43484;43.608;1.458;2023-08-24T13:28:24;99231.31;;;37.06;41.69
49723;BME280;43484;43.608;1.458;2023-08-24T13:30:51;99239.19;;;37.07;40.39
49723;BME280;43484;43.608;1.458;2023-08-24T13:33:17;99234.84;;;37.16;37.96